Time;durP1;ratioP1;P1;durP2;ratioP2;P2;SDS_P1;SDS_P2;PMS_P1;PMS_P2;Temp;Humidity;BMP_temperature;BMP_pressure;BME280_temperature;BME280_humidity;BME280_pressure;Samples;Min_cycle;Max_cycle;Signal;HPM_P1;HPM_P2
2022/05/12 00:01:39;;;;;;;6.45;1.70;;;9.30;99.90;;;;;;5023190;28;20064;-62
2022/05/12 00:04:07;;;;;;;7.47;1.83;;;9.30;99.90;;;;;;5025702;28;20053;-62
2022/05/12 00:06:35;;;;;;;6.78;1.80;;;9.30;99.90;;;;;;5025426;28;20510;-62
2022/05/12 00:09:03;;;;;;;8.38;1.45;;;9.30;99.90;;;;;;5023706;28;20397;-61
2022/05/12 00:11:30;;;;;;;5.85;1.30;;;9.30;99.90;;;;;;5027504;28;20058;-61
2022/05/12 00:13:58;;;;;;;3.08;1.40;;;9.40;99.90;;;;;;5027678;28;20543;-61
2022/05/12 00:16:26;;;;;;;6.57;1.80;;;9.40;99.90;;;;;;5028262;28;20048;-61
2022/05/12 00:18:53;;;;;;;13.88;2.85;;;9.50;99.90;;;;;;5030824;28;20049;-61
2022/05/12 00:21:21;;;;;;;10.63;1.70;;;9.50;99.90;;;;;;5029052;28;20052;-62
2022/05/12 00:23:58;;;;;;;5.82;1.25;;;9.60;99.90;;;;;;5012203;28;20053;-62
2022/05/12 00:26:27;;;;;;;10.98;1.88;;;9.60;99.90;;;;;;5022729;28;20123;-63
2022/05/12 00:28:57;;;;;;;6.57;1.65;;;9.70;99.90;;;;;;5030555;28;20086;-61
2022/05/12 00:31:26;;;;;;;11.02;2.05;;;9.70;99.90;;;;;;5031468;28;20481;-61
2022/05/12 00:33:54;;;;;;;10.52;1.98;;;9.80;99.90;;;;;;5032022;28;20045;-62
2022/05/12 00:36:21;;;;;;;8.18;2.22;;;9.80;99.90;;;;;;5022150;28;20041;-63
2022/05/12 00:38:49;;;;;;;9.55;1.67;;;9.90;99.90;;;;;;5022654;28;20050;-61
2022/05/12 00:41:17;;;;;;;4.68;1.35;;;9.90;99.90;;;;;;5028204;28;20540;-62
2022/05/12 00:43:48;;;;;;;7.72;1.50;;;9.90;99.90;;;;;;5031116;28;20405;-62
2022/05/12 00:46:18;;;;;;;7.55;1.50;;;9.80;99.90;;;;;;5030841;28;20052;-62
2022/05/12 00:48:46;;;;;;;5.70;1.75;;;9.80;99.90;;;;;;5030417;28;20048;-62
2022/05/12 00:51:24;;;;;;;6.65;1.40;;;9.70;99.90;;;;;;5027577;28;20969;-61
2022/05/12 00:53:54;;;;;;;8.18;1.83;;;9.60;99.90;;;;;;5009319;28;20528;-61
2022/05/12 00:56:24;;;;;;;6.68;2.10;;;9.50;99.90;;;;;;5028619;28;20045;-62
2022/05/12 00:58:57;;;;;;;10.38;1.75;;;9.40;99.90;;;;;;5030666;28;20393;-61
2022/05/12 01:01:25;;;;;;;8.18;1.55;;;9.40;99.90;;;;;;5027239;28;20049;-62
2022/05/12 01:03:56;;;;;;;7.38;1.90;;;9.30;99.90;;;;;;5026046;28;20405;-62
2022/05/12 01:06:24;;;;;;;8.90;1.77;;;9.20;99.90;;;;;;5027303;28;20066;-61
2022/05/12 01:08:52;;;;;;;5.85;1.52;;;9.20;99.90;;;;;;5019253;28;20048;-61
2022/05/12 01:11:21;;;;;;;8.23;2.20;;;9.20;99.90;;;;;;5026252;28;20046;-62
2022/05/12 01:13:59;;;;;;;6.93;1.75;;;9.10;99.90;;;;;;5027860;28;20053;-62
2022/05/12 01:16:42;;;;;;;6.15;1.52;;;9.10;99.90;;;;;;5026442;28;20056;-60
2022/05/12 01:19:21;;;;;;;8.20;1.80;;;9.00;99.90;;;;;;5027747;28;20048;-61
2022/05/12 01:21:50;;;;;;;4.30;1.43;;;9.00;99.90;;;;;;5027226;28;20050;-60
2022/05/12 01:24:21;;;;;;;8.57;1.92;;;8.90;99.90;;;;;;5023834;28;20061;-61
2022/05/12 01:26:49;;;;;;;8.48;2.00;;;8.90;99.90;;;;;;5026547;28;20045;-61
2022/05/12 01:29:18;;;;;;;8.30;2.15;;;8.90;99.90;;;;;;5026583;28;20037;-60
2022/05/12 01:31:46;;;;;;;12.27;2.03;;;8.80;99.90;;;;;;5026357;28;20045;-61
2022/05/12 01:34:14;;;;;;;9.32;1.70;;;8.80;99.90;;;;;;5029743;28;20052;-62
2022/05/12 01:36:42;;;;;;;9.43;1.80;;;8.70;99.90;;;;;;5026020;28;20049;-60
2022/05/12 01:39:10;;;;;;;6.65;2.50;;;8.70;99.90;;;;;;5028616;28;20374;-61
2022/05/12 01:41:38;;;;;;;7.75;1.50;;;8.70;99.90;;;;;;5028842;28;20045;-60
2022/05/12 01:44:06;;;;;;;10.18;1.73;;;8.60;99.90;;;;;;5027202;28;20053;-58
2022/05/12 01:46:34;;;;;;;6.72;1.60;;;8.60;99.90;;;;;;5025318;28;20045;-60
2022/05/12 01:49:02;;;;;;;11.10;1.98;;;8.60;99.90;;;;;;5017794;28;20050;-61
2022/05/12 01:51:32;;;;;;;6.30;2.10;;;8.60;99.90;;;;;;5023540;28;20622;-61
2022/05/12 01:54:00;;;;;;;13.95;1.60;;;8.60;99.90;;;;;;5027918;28;20814;-61
2022/05/12 01:56:29;;;;;;;8.03;1.90;;;8.60;99.90;;;;;;5025518;28;20065;-61
2022/05/12 01:58:57;;;;;;;6.82;1.63;;;8.60;99.90;;;;;;5025616;28;20305;-62
2022/05/12 02:01:24;;;;;;;5.60;2.10;;;8.60;99.90;;;;;;5025500;28;20048;-59
2022/05/12 02:03:52;;;;;;;5.18;2.50;;;8.50;99.90;;;;;;5028761;28;20050;-60
2022/05/12 02:06:19;;;;;;;4.90;1.75;;;8.50;99.90;;;;;;5027485;28;20458;-59
2022/05/12 02:08:47;;;;;;;8.80;1.83;;;8.50;99.90;;;;;;5027643;28;20045;-61
2022/05/12 02:11:14;;;;;;;9.38;1.67;;;8.50;99.90;;;;;;5027660;28;20389;-61
2022/05/12 02:13:43;;;;;;;5.03;1.63;;;8.40;99.90;;;;;;5031154;28;20045;-61
2022/05/12 02:16:10;;;;;;;4.40;1.40;;;8.40;99.90;;;;;;5030634;28;20053;-61
2022/05/12 02:18:39;;;;;;;6.05;1.65;;;8.30;99.90;;;;;;5032254;28;20125;-61
2022/05/12 02:21:07;;;;;;;6.45;1.92;;;8.30;99.90;;;;;;5026631;28;20493;-61
2022/05/12 02:23:34;;;;;;;4.88;1.77;;;8.30;99.90;;;;;;5030813;28;20383;-61
2022/05/12 02:26:03;;;;;;;5.63;2.05;;;8.20;99.90;;;;;;5031364;28;20056;-59
2022/05/12 02:28:30;;;;;;;9.63;2.25;;;8.20;99.90;;;;;;5029799;28;20045;-59
2022/05/12 02:30:58;;;;;;;8.90;2.00;;;8.10;99.90;;;;;;5030091;28;20045;-58
2022/05/12 02:33:25;;;;;;;11.82;3.17;;;8.10;99.90;;;;;;5030942;28;20056;-59
2022/05/12 02:35:53;;;;;;;6.93;2.30;;;8.00;99.90;;;;;;5029686;28;20049;-59
2022/05/12 02:38:21;;;;;;;5.25;1.60;;;8.00;99.90;;;;;;5032012;28;20050;-58
2022/05/12 02:40:49;;;;;;;7.25;2.00;;;8.00;99.90;;;;;;5030162;28;20068;-59
2022/05/12 02:43:25;;;;;;;4.97;1.90;;;8.00;99.90;;;;;;5029773;28;20508;-58
2022/05/12 02:45:59;;;;;;;5.05;1.77;;;7.90;99.90;;;;;;5029169;28;20069;-58
2022/05/12 02:48:30;;;;;;;11.48;2.08;;;7.90;99.90;;;;;;5030442;28;20551;-59
2022/05/12 02:50:59;;;;;;;5.90;1.73;;;7.90;99.90;;;;;;5026929;28;20565;-58
2022/05/12 02:53:28;;;;;;;4.60;1.95;;;7.90;99.90;;;;;;5030917;28;20400;-59
2022/05/12 02:55:58;;;;;;;6.57;1.63;;;7.90;99.90;;;;;;5028980;28;20057;-59
2022/05/12 02:58:27;;;;;;;6.45;1.45;;;7.90;99.90;;;;;;5028604;28;20050;-60
2022/05/12 03:00:56;;;;;;;6.05;1.60;;;7.90;99.90;;;;;;5030833;28;20049;-60
2022/05/12 03:03:24;;;;;;;8.65;1.60;;;7.90;99.90;;;;;;5028466;28;20037;-58
2022/05/12 03:05:52;;;;;;;7.25;2.03;;;7.90;99.90;;;;;;5028796;28;20053;-59
2022/05/12 03:08:21;;;;;;;6.95;1.52;;;7.90;99.90;;;;;;5030648;28;20038;-58
2022/05/12 03:10:51;;;;;;;7.95;1.50;;;7.90;99.90;;;;;;5030726;28;20397;-59
2022/05/12 03:13:20;;;;;;;8.63;3.03;;;8.00;99.90;;;;;;5028365;28;20053;-58
2022/05/12 03:15:47;;;;;;;6.68;1.58;;;8.00;99.90;;;;;;5027755;28;20041;-59
2022/05/12 03:18:15;;;;;;;6.65;1.55;;;8.00;99.90;;;;;;5032463;28;20037;-58
2022/05/12 03:20:43;;;;;;;9.55;2.00;;;8.10;99.90;;;;;;5030544;28;20053;-59
2022/05/12 03:23:11;;;;;;;5.75;1.45;;;8.10;99.90;;;;;;5029462;28;20046;-58
2022/05/12 03:25:39;;;;;;;6.80;1.35;;;8.10;99.90;;;;;;5030417;28;20046;-60
2022/05/12 03:28:06;;;;;;;8.90;1.40;;;8.10;99.90;;;;;;5031181;28;20052;-59
2022/05/12 03:30:34;;;;;;;8.30;1.67;;;8.10;99.90;;;;;;5028752;28;20037;-61
2022/05/12 03:33:02;;;;;;;9.65;2.00;;;8.10;99.90;;;;;;5029929;28;20428;-60
2022/05/12 03:35:30;;;;;;;6.50;1.52;;;8.20;99.90;;;;;;5029233;28;20061;-60
2022/05/12 03:37:57;;;;;;;6.30;1.60;;;8.20;99.90;;;;;;5029945;28;20050;-62
2022/05/12 03:40:25;;;;;;;5.25;1.73;;;8.20;99.90;;;;;;5030500;28;20405;-61
2022/05/12 03:42:53;;;;;;;7.43;1.73;;;8.10;99.90;;;;;;5032417;28;20053;-61
2022/05/12 03:45:22;;;;;;;9.68;1.85;;;8.00;99.90;;;;;;5033936;28;20038;-61
2022/05/12 03:47:50;;;;;;;8.65;2.05;;;8.00;99.90;;;;;;5031735;28;20401;-60
2022/05/12 03:50:20;;;;;;;6.45;2.15;;;7.90;99.90;;;;;;5034872;28;20053;-60
2022/05/12 03:52:49;;;;;;;5.55;1.75;;;7.90;99.90;;;;;;5032098;28;20401;-61
2022/05/12 03:55:20;;;;;;;4.65;1.50;;;7.80;99.90;;;;;;5033978;28;20484;-61
2022/05/12 03:57:51;;;;;;;9.55;2.72;;;7.70;99.90;;;;;;5033842;28;20060;-61
2022/05/12 04:00:28;;;;;;;6.60;1.85;;;7.60;99.90;;;;;;5034039;28;20518;-61
2022/05/12 04:02:56;;;;;;;8.15;2.10;;;7.60;99.90;;;;;;5032958;28;20052;-61
2022/05/12 04:05:25;;;;;;;16.52;3.00;;;7.50;99.90;;;;;;5034034;28;20044;-60
2022/05/12 04:07:52;;;;;;;7.35;2.20;;;7.50;99.90;;;;;;5032916;28;20049;-60
2022/05/12 04:10:21;;;;;;;5.65;2.40;;;7.50;99.90;;;;;;5033709;28;20483;-61
2022/05/12 04:12:49;;;;;;;12.45;3.78;;;7.40;99.90;;;;;;5031432;28;20057;-61
2022/05/12 04:15:18;;;;;;;14.85;3.10;;;7.40;99.90;;;;;;5033412;28;20488;-59
2022/05/12 04:17:58;;;;;;;4.18;2.20;;;7.40;99.90;;;;;;5033882;28;20057;-58
2022/05/12 04:20:27;;;;;;;10.07;2.20;;;7.30;99.90;;;;;;5032641;28;20409;-59
2022/05/12 04:22:54;;;;;;;4.90;2.53;;;7.30;99.90;;;;;;5033242;28;20072;-59
2022/05/12 04:25:23;;;;;;;14.95;3.38;;;7.30;99.90;;;;;;5034365;28;20046;-59
2022/05/12 04:27:51;;;;;;;6.25;2.50;;;7.30;99.90;;;;;;5031834;28;20048;-58
2022/05/12 04:30:24;;;;;;;11.48;3.75;;;7.30;99.90;;;;;;5034026;28;20049;-61
2022/05/12 04:32:53;;;;;;;9.07;1.88;;;7.30;99.90;;;;;;5031612;28;20046;-61
2022/05/12 04:35:21;;;;;;;15.55;3.30;;;7.20;99.90;;;;;;5030056;28;20046;-61
2022/05/12 04:37:54;;;;;;;7.78;2.50;;;7.30;99.90;;;;;;5021211;28;20402;-63
2022/05/12 04:40:24;;;;;;;5.95;1.90;;;7.30;99.90;;;;;;5020603;28;20559;-63
2022/05/12 04:42:53;;;;;;;7.75;1.83;;;7.30;99.90;;;;;;5029651;28;20064;-61
2022/05/12 04:45:23;;;;;;;12.23;2.20;;;7.40;99.90;;;;;;5031698;28;20058;-61
2022/05/12 04:47:51;;;;;;;6.13;2.13;;;7.40;99.90;;;;;;5022032;28;20046;-61
2022/05/12 04:50:23;;;;;;;8.98;1.92;;;7.50;99.90;;;;;;5013697;28;20045;-61
2022/05/12 04:52:51;;;;;;;9.20;2.25;;;7.50;99.90;;;;;;5021535;28;20129;-61
2022/05/12 04:55:19;;;;;;;8.23;1.98;;;7.60;99.90;;;;;;5024032;28;20037;-62
2022/05/12 04:57:49;;;;;;;7.15;1.85;;;7.60;99.90;;;;;;5021083;28;20641;-60
2022/05/12 05:00:21;;;;;;;6.10;1.95;;;7.70;99.90;;;;;;5014138;28;20050;-60
2022/05/12 05:02:48;;;;;;;8.98;2.05;;;7.70;99.90;;;;;;5019356;28;20037;-59
2022/05/12 05:05:16;;;;;;;12.52;2.10;;;7.70;99.90;;;;;;5017527;28;20048;-62
2022/05/12 05:07:44;;;;;;;6.35;1.63;;;7.80;99.90;;;;;;5021957;28;20037;-61
2022/05/12 05:10:12;;;;;;;7.97;1.77;;;7.80;99.90;;;;;;5028007;28;20053;-60
2022/05/12 05:12:41;;;;;;;6.80;2.33;;;7.90;99.90;;;;;;5021453;28;20065;-60
2022/05/12 05:15:11;;;;;;;9.00;1.92;;;7.90;99.90;;;;;;5026107;28;20049;-62
2022/05/12 05:17:41;;;;;;;5.90;2.65;;;7.90;99.90;;;;;;5028356;28;20444;-60
2022/05/12 05:20:12;;;;;;;7.32;1.50;;;8.00;99.90;;;;;;5059777;28;20409;-60
2022/05/12 05:22:40;;;;;;;9.82;1.77;;;8.00;99.90;;;;;;5029537;28;20049;-61
2022/05/12 05:25:08;;;;;;;6.18;2.13;;;8.10;99.90;;;;;;5025866;28;20057;-61
2022/05/12 05:27:37;;;;;;;4.97;1.98;;;8.10;99.90;;;;;;5029279;28;20049;-60
2022/05/12 05:30:08;;;;;;;7.90;2.42;;;8.20;99.90;;;;;;5012780;28;20049;-60
2022/05/12 05:32:36;;;;;;;7.03;1.67;;;8.20;99.90;;;;;;4979355;28;1312024;-61
2022/05/12 05:35:06;;;;;;;14.15;2.15;;;8.30;99.90;;;;;;5028352;28;20045;-60
2022/05/12 05:37:34;;;;;;;6.88;2.13;;;8.30;99.90;;;;;;5026552;28;20049;-60
2022/05/12 05:40:04;;;;;;;11.50;1.58;;;8.40;99.90;;;;;;5025039;28;20512;-60
2022/05/12 05:42:32;;;;;;;6.15;2.00;;;8.40;99.90;;;;;;5019871;28;20041;-61
2022/05/12 05:45:00;;;;;;;8.88;2.50;;;8.40;99.90;;;;;;5016467;28;20064;-60
2022/05/12 05:47:28;;;;;;;10.10;1.90;;;8.50;99.90;;;;;;5026244;28;20060;-60
2022/05/12 05:49:56;;;;;;;6.80;1.45;;;8.60;99.90;;;;;;5026293;28;20045;-60
2022/05/12 05:55:09;;;;;;;8.15;1.88;;;8.80;99.90;;;;;;5027013;28;20492;-60
2022/05/12 05:57:38;;;;;;;8.50;1.65;;;8.80;99.90;;;;;;5022027;28;20037;-61
2022/05/12 06:00:06;;;;;;;9.43;1.60;;;8.90;99.90;;;;;;5022790;28;20041;-60
2022/05/12 06:02:34;;;;;;;7.57;1.52;;;9.00;99.90;;;;;;5021686;28;20053;-60
2022/05/12 06:05:02;;;;;;;6.10;1.70;;;9.00;99.90;;;;;;5024196;28;20401;-60
2022/05/12 06:07:30;;;;;;;5.53;1.80;;;9.00;99.90;;;;;;5028247;28;20533;-60
2022/05/12 06:09:58;;;;;;;8.85;1.40;;;9.10;99.90;;;;;;5029598;28;20425;-60
2022/05/12 06:12:25;;;;;;;5.80;1.42;;;9.10;99.90;;;;;;5026816;28;20873;-60
2022/05/12 06:14:53;;;;;;;4.20;1.50;;;9.10;99.90;;;;;;5016790;28;20381;-60
2022/05/12 06:17:21;;;;;;;4.95;1.83;;;9.20;99.90;;;;;;5021639;28;20338;-61
2022/05/12 06:19:50;;;;;;;7.30;2.10;;;9.20;99.90;;;;;;5024022;28;20051;-60
2022/05/12 06:22:21;;;;;;;6.93;1.42;;;9.30;99.90;;;;;;5009675;28;20050;-60
2022/05/12 06:24:49;;;;;;;6.50;1.98;;;9.30;99.90;;;;;;5022622;28;20618;-60
2022/05/12 06:27:22;;;;;;;6.53;1.42;;;9.30;99.90;;;;;;5025072;28;20390;-59
2022/05/12 06:29:50;;;;;;;6.22;1.33;;;9.40;99.90;;;;;;5019242;28;20204;-59
2022/05/12 06:32:18;;;;;;;8.23;1.73;;;9.50;99.90;;;;;;5022213;28;20037;-60
2022/05/12 06:34:46;;;;;;;12.90;1.52;;;9.50;99.90;;;;;;5015911;28;20052;-61
2022/05/12 06:37:14;;;;;;;4.15;1.10;;;9.60;99.90;;;;;;5017273;28;20042;-59
2022/05/12 06:39:42;;;;;;;8.20;1.73;;;9.70;99.90;;;;;;5017629;28;20045;-60
2022/05/12 06:42:10;;;;;;;14.50;2.53;;;9.70;99.90;;;;;;5020452;28;20041;-60
2022/05/12 06:44:44;;;;;;;8.25;1.55;;;9.70;99.90;;;;;;5018423;28;20053;-60
2022/05/12 06:47:14;;;;;;;7.25;1.23;;;9.90;99.90;;;;;;5013785;28;20046;-60
2022/05/12 06:49:42;;;;;;;4.28;1.25;;;10.00;99.90;;;;;;5014656;28;20378;-60
2022/05/12 06:52:10;;;;;;;4.85;1.10;;;10.10;99.90;;;;;;5018128;28;20493;-61
2022/05/12 06:54:39;;;;;;;8.02;1.33;;;10.20;99.90;;;;;;5012704;28;20050;-62
2022/05/12 06:57:07;;;;;;;14.73;1.67;;;10.30;99.90;;;;;;5011910;28;20054;-60
2022/05/12 06:59:39;;;;;;;4.30;1.10;;;10.40;99.90;;;;;;5017803;28;20302;-61
2022/05/12 07:02:08;;;;;;;5.68;1.00;;;10.50;99.90;;;;;;5017043;28;20613;-61
2022/05/12 07:04:35;;;;;;;7.25;1.33;;;10.60;99.90;;;;;;5016727;28;20041;-59
2022/05/12 07:07:05;;;;;;;3.90;1.23;;;10.70;99.90;;;;;;5021267;28;20045;-60
2022/05/12 07:09:33;;;;;;;3.67;1.00;;;10.80;99.90;;;;;;5017140;28;20493;-60
2022/05/12 07:12:00;;;;;;;7.18;0.88;;;10.80;99.90;;;;;;5010177;28;20496;-59
2022/05/12 07:14:28;;;;;;;4.13;1.00;;;10.80;99.90;;;;;;5014901;28;20382;-60
2022/05/12 07:16:56;;;;;;;8.25;1.23;;;10.90;99.90;;;;;;5010441;28;20049;-62
2022/05/12 07:19:23;;;;;;;8.07;1.27;;;10.90;99.90;;;;;;5026063;28;20056;-62
2022/05/12 07:27:23;;;;;;;4.20;0.90;;;11.10;99.90;;;;;;5022141;28;20061;-62
2022/05/12 07:29:51;;;;;;;4.20;1.00;;;11.20;99.90;;;;;;5015644;28;20041;-62
2022/05/12 07:32:19;;;;;;;6.97;1.30;;;11.20;99.90;;;;;;5023841;28;20068;-59
2022/05/12 07:34:47;;;;;;;9.15;1.80;;;11.20;99.90;;;;;;5011456;28;20050;-60
2022/05/12 07:37:15;;;;;;;6.35;0.90;;;11.30;99.90;;;;;;5026500;28;20523;-59
2022/05/12 07:39:43;;;;;;;3.97;1.10;;;11.30;99.90;;;;;;5019923;28;20050;-60
2022/05/12 07:42:10;;;;;;;5.40;0.95;;;11.40;99.90;;;;;;5012727;28;20509;-61
2022/05/12 07:44:39;;;;;;;6.50;1.02;;;11.40;99.90;;;;;;5016279;28;20379;-60
2022/05/12 07:47:10;;;;;;;4.07;1.40;;;11.40;99.90;;;;;;5029323;28;20052;-60
2022/05/12 07:49:39;;;;;;;6.95;1.90;;;11.50;99.90;;;;;;5009816;28;20049;-59
2022/05/12 07:52:10;;;;;;;5.07;1.13;;;11.50;99.90;;;;;;5021617;28;20052;-59
2022/05/12 07:54:38;;;;;;;7.63;1.00;;;11.60;99.90;;;;;;5015239;28;20046;-59
2022/05/12 07:57:06;;;;;;;5.93;2.00;;;11.60;99.90;;;;;;5030369;28;20064;-62
2022/05/12 07:59:44;;;;;;;4.70;1.15;;;11.70;99.90;;;;;;5016809;28;20057;-59
2022/05/12 08:02:16;;;;;;;6.13;0.98;;;11.80;99.90;;;;;;5023484;28;20049;-62
2022/05/12 08:04:46;;;;;;;6.80;1.17;;;11.80;99.90;;;;;;5029297;28;20049;-60
2022/05/12 08:07:14;;;;;;;4.43;1.30;;;11.90;99.90;;;;;;5029735;28;20040;-60
2022/05/12 08:09:43;;;;;;;11.55;1.40;;;11.90;99.90;;;;;;5029202;28;20057;-60
2022/05/12 08:12:11;;;;;;;4.45;0.90;;;11.90;99.90;;;;;;5028559;28;20054;-59
2022/05/12 08:14:39;;;;;;;8.95;1.38;;;12.00;99.90;;;;;;5017726;28;20057;-60
2022/05/12 08:17:09;;;;;;;4.22;0.80;;;12.10;99.90;;;;;;5027948;28;20050;-59
2022/05/12 08:19:37;;;;;;;;;;;12.10;99.90;;;;;;5027931;28;20512;-60
2022/05/12 08:22:07;;;;;;;11.88;2.50;;;12.20;99.90;;;;;;5024126;28;19929;-60
2022/05/12 08:24:35;;;;;;;9.77;0.90;;;12.20;99.90;;;;;;5019023;28;20409;-60
2022/05/12 08:27:04;;;;;;;9.73;0.80;;;12.20;99.90;;;;;;5024252;28;20091;-60
2022/05/12 08:29:31;;;;;;;7.68;1.02;;;12.40;99.90;;;;;;5030546;28;20050;-59
2022/05/12 08:31:59;;;;;;;6.05;1.08;;;12.40;99.90;;;;;;5017421;28;20052;-62
2022/05/12 08:34:28;;;;;;;6.28;1.08;;;12.40;99.90;;;;;;5031427;28;20056;-59
2022/05/12 08:36:55;;;;;;;7.32;1.10;;;12.50;99.90;;;;;;5022151;28;20045;-60
2022/05/12 08:39:23;;;;;;;6.13;1.23;;;12.60;99.90;;;;;;5026248;28;20037;-59
2022/05/12 08:42:15;;;;;;;4.32;0.80;;;12.70;99.90;;;;;;5012875;28;20050;-59
2022/05/12 08:44:43;;;;;;;7.75;0.70;;;12.70;99.90;;;;;;5029723;28;20037;-59
2022/05/12 08:47:15;;;;;;;7.57;0.93;;;12.70;99.90;;;;;;5026319;28;20065;-59
2022/05/12 08:49:53;;;;;;;6.40;1.00;;;12.70;99.90;;;;;;5012694;28;20042;-59
2022/05/12 08:52:48;;;;;;;9.85;0.82;;;12.70;99.90;;;;;;5030828;28;20041;-59
2022/05/12 08:55:39;;;;;;;14.88;1.75;;;12.70;99.90;;;;;;5028190;28;20391;-60
2022/05/12 08:58:33;;;;;;;8.57;1.10;;;12.70;99.90;;;;;;5032239;28;20048;-59
2022/05/12 09:01:01;;;;;;;11.65;0.93;;;12.70;99.90;;;;;;5025453;28;20404;-59
2022/05/12 09:03:50;;;;;;;8.73;1.35;;;12.70;99.90;;;;;;5018867;28;20053;-59
2022/05/12 09:06:27;;;;;;;9.23;1.50;;;12.80;99.90;;;;;;5012438;28;20041;-61
2022/05/12 09:09:33;;;;;;;4.72;0.95;;;12.80;99.90;;;;;;5031500;28;20050;-60
2022/05/12 09:12:36;;;;;;;7.25;1.00;;;12.90;99.90;;;;;;5032133;28;20481;-60
2022/05/12 09:15:17;;;;;;;4.78;1.02;;;13.20;99.90;;;;;;5022234;28;20045;-59
2022/05/12 09:17:54;;;;;;;5.63;1.10;;;13.30;99.90;;;;;;5026416;28;20496;-59
2022/05/12 09:20:23;;;;;;;5.18;1.10;;;13.30;99.90;;;;;;5027973;28;20033;-59
2022/05/12 09:22:58;;;;;;;8.52;1.90;;;13.40;99.90;;;;;;5025721;28;20393;-62
2022/05/12 09:25:45;;;;;;;10.63;1.73;;;13.50;99.90;;;;;;5021605;28;20057;-62
2022/05/12 09:28:18;;;;;;;5.75;1.00;;;13.60;99.90;;;;;;5022244;28;20041;-62
2022/05/12 09:30:48;;;;;;;5.70;1.23;;;13.70;99.90;;;;;;5027129;28;20053;-63
2022/05/12 09:33:36;;;;;;;14.93;1.85;;;13.90;99.90;;;;;;5011497;28;20367;-61
2022/05/12 09:36:09;;;;;;;5.18;1.35;;;14.00;99.90;;;;;;5023634;28;20050;-61
2022/05/12 09:38:45;;;;;;;5.20;1.30;;;14.10;99.90;;;;;;5023347;28;20045;-60
2022/05/12 09:41:22;;;;;;;7.65;0.98;;;14.10;99.90;;;;;;5022304;28;20061;-60
2022/05/12 09:43:52;;;;;;;6.22;1.08;;;14.10;99.90;;;;;;5029327;28;20053;-62
2022/05/12 09:46:31;;;;;;;4.95;1.30;;;14.20;99.90;;;;;;5031565;28;20041;-62
2022/05/12 09:49:21;;;;;;;8.02;0.88;;;14.20;99.90;;;;;;5017242;28;20041;-62
2022/05/12 09:51:49;;;;;;;8.05;0.85;;;14.30;99.90;;;;;;5030032;28;20045;-62
2022/05/12 09:54:23;;;;;;;4.00;0.55;;;14.40;99.90;;;;;;5030356;28;20050;-60
2022/05/12 09:57:12;;;;;;;5.15;0.82;;;14.70;99.90;;;;;;5032986;28;20057;-62
2022/05/12 09:59:43;;;;;;;6.50;0.95;;;14.70;99.90;;;;;;5028005;28;20050;-63
2022/05/12 10:08:25;;;;;;;3.60;0.65;;;15.10;99.90;;;;;;5024737;28;20394;-60
2022/05/12 10:11:04;;;;;;;3.80;0.70;;;15.20;99.60;;;;;;5023768;28;20045;-60
2022/05/12 10:13:50;;;;;;;6.68;0.40;;;15.20;99.70;;;;;;5021486;28;20049;-61
2022/05/12 10:16:23;;;;;;;3.35;0.60;;;15.30;99.10;;;;;;5021362;28;20037;-60
2022/05/12 10:18:55;;;;;;;5.85;0.93;;;15.30;98.40;;;;;;5012984;28;20053;-60
2022/05/12 10:21:26;;;;;;;5.30;0.85;;;15.20;98.40;;;;;;5014561;28;20042;-60
2022/05/12 10:24:31;;;;;;;8.38;1.50;;;15.10;99.70;;;;;;5015155;28;20482;-60
2022/05/12 10:27:08;;;;;;;7.10;0.85;;;15.20;99.30;;;;;;5012576;28;20050;-59
2022/05/12 10:30:01;;;;;;;3.78;0.55;;;15.20;99.70;;;;;;5016493;28;20068;-60
2022/05/12 10:33:21;;;;;;;7.97;0.90;;;15.40;99.90;;;;;;5022144;28;20061;-60
2022/05/12 10:36:13;;;;;;;3.55;0.68;;;15.60;99.80;;;;;;4993862;28;20451;-62
2022/05/12 10:38:52;;;;;;;4.80;0.60;;;15.90;98.50;;;;;;5024551;28;20048;-61
2022/05/12 10:41:29;;;;;;;6.63;0.90;;;16.00;98.00;;;;;;5012033;28;20067;-61
2022/05/12 10:44:16;;;;;;;5.18;0.95;;;16.10;98.20;;;;;;5023582;28;20489;-60
2022/05/12 10:47:12;;;;;;;7.75;1.08;;;16.20;97.70;;;;;;5000830;28;20053;-59
2022/05/12 10:49:58;;;;;;;3.50;1.05;;;16.40;97.40;;;;;;5013657;28;20493;-61
2022/05/12 10:52:54;;;;;;;5.85;0.75;;;16.50;97.10;;;;;;5016418;28;20050;-59
2022/05/12 10:56:12;;;;;;;5.75;1.20;;;16.60;94.80;;;;;;5006676;28;20057;-59
2022/05/12 10:59:05;;;;;;;4.85;0.68;;;16.30;95.80;;;;;;5000948;28;20062;-60
2022/05/12 11:01:40;;;;;;;2.88;0.68;;;16.10;95.60;;;;;;5019340;28;20474;-59
2022/05/12 11:04:14;;;;;;;6.35;1.00;;;15.80;95.90;;;;;;5012887;28;20049;-60
2022/05/12 11:06:53;;;;;;;7.20;0.95;;;15.60;96.40;;;;;;5021087;28;20053;-60
2022/05/12 11:09:32;;;;;;;6.23;0.73;;;15.40;95.90;;;;;;5018768;28;20739;-60
2022/05/12 11:12:11;;;;;;;9.85;1.10;;;15.20;96.30;;;;;;5021200;28;20299;-60
2022/05/12 11:14:44;;;;;;;5.17;0.77;;;15.00;96.70;;;;;;5014766;28;20519;-60
2022/05/12 11:17:17;;;;;;;8.18;1.48;;;14.90;96.70;;;;;;5023512;28;20037;-59
2022/05/12 11:19:55;;;;;;;2.13;0.50;;;14.80;97.20;;;;;;5021166;28;20056;-60
2022/05/12 11:23:21;;;;;;;9.55;1.00;;;14.70;97.80;;;;;;5019216;28;20397;-61
2022/05/12 11:26:22;;;;;;;9.43;1.35;;;14.70;97.70;;;;;;4984654;28;20058;-60
2022/05/12 11:32:10;;;;;;;10.52;1.05;;;14.90;99.00;;;;;;5019496;28;20785;-61
2022/05/12 11:34:39;;;;;;;6.38;1.10;;;15.20;98.10;;;;;;5021537;28;20049;-63
2022/05/12 11:37:56;;;;;;;10.15;1.00;;;15.30;97.90;;;;;;5009784;28;20042;-62
2022/05/12 11:40:48;;;;;;;5.35;0.85;;;15.70;97.40;;;;;;5031006;28;20060;-61
2022/05/12 11:46:53;;;;;;;5.22;0.95;;;16.10;92.80;;;;;;5024122;28;20041;-60
2022/05/12 11:49:31;;;;;;;7.07;1.30;;;15.70;92.30;;;;;;5013145;28;20481;-61
2022/05/12 11:52:23;;;;;;;4.30;0.82;;;15.50;93.20;;;;;;5023995;28;20049;-60
2022/05/12 11:55:03;;;;;;;8.70;1.15;;;15.40;92.60;;;;;;5019054;28;20033;-60
2022/05/12 11:57:35;;;;;;;;;;;15.30;91.40;;;;;;5026158;28;20083;-62
2022/05/12 12:00:08;;;;;;;3.22;0.70;;;15.40;92.30;;;;;;5015616;28;20770;-60
2022/05/12 12:02:46;;;;;;;5.93;1.15;;;15.70;92.80;;;;;;5026254;28;20061;-59
2022/05/12 12:05:36;;;;;;;7.78;1.27;;;16.20;91.20;;;;;;5019696;28;20042;-64
2022/05/12 12:08:07;;;;;;;;;;;16.50;91.40;;;;;;5016055;28;20065;-63
2022/05/12 12:10:40;;;;;;;1.60;0.40;;;16.80;90.30;;;;;;5014941;28;19928;-60
2022/05/12 12:13:36;;;;;;;3.60;0.95;;;17.00;85.70;;;;;;5033051;28;20046;-60
2022/05/12 12:16:16;;;;;;;6.13;0.90;;;17.00;85.30;;;;;;5031275;28;20049;-62
2022/05/12 12:18:48;;;;;;;5.22;0.70;;;16.80;86.50;;;;;;5023568;28;20046;-60
2022/05/12 12:21:37;;;;;;;5.68;0.80;;;16.70;84.00;;;;;;5027435;28;20045;-60
2022/05/12 12:24:29;;;;;;;6.55;1.05;;;16.50;84.90;;;;;;5014410;28;20042;-63
2022/05/12 12:27:25;;;;;;;4.60;0.95;;;16.40;86.50;;;;;;5028854;28;20056;-63
2022/05/12 12:29:53;;;;;;;7.85;0.80;;;16.40;86.50;;;;;;5030502;28;20060;-64
2022/05/12 12:32:33;;;;;;;6.60;1.00;;;16.40;88.10;;;;;;5033729;28;20033;-64
2022/05/12 12:35:10;;;;;;;3.25;0.60;;;16.90;87.40;;;;;;5018343;28;20050;-63
2022/05/12 12:37:50;;;;;;;4.93;1.13;;;17.50;82.40;;;;;;5017922;28;20120;-60
2022/05/12 12:40:33;;;;;;;8.43;1.00;;;17.60;82.00;;;;;;5032706;28;20057;-60
2022/05/12 12:43:16;;;;;;;4.55;0.70;;;17.50;80.40;;;;;;5027084;28;20052;-60
2022/05/12 12:45:52;;;;;;;7.43;0.95;;;17.40;80.00;;;;;;5031761;28;20038;-59
2022/05/12 12:48:30;;;;;;;3.88;1.13;;;17.10;80.90;;;;;;5032361;28;20056;-60
2022/05/12 12:50:57;;;;;;;4.22;0.60;;;16.90;80.90;;;;;;5032128;28;20053;-60
2022/05/12 12:56:30;;;;;;;10.43;1.23;;;16.60;80.40;;;;;;5030274;28;20393;-60
2022/05/12 12:56:32;;;;;;;10.45;1.40;;;16.40;82.00;;;;;;5029143;28;20033;-60
2022/05/12 12:59:12;;;;;;;6.60;0.90;;;16.40;81.70;;;;;;5020204;28;20041;-60
2022/05/12 13:02:00;;;;;;;8.00;1.17;;;16.20;82.30;;;;;;5016045;28;20045;-61
2022/05/12 13:04:34;;;;;;;7.50;0.85;;;16.30;82.80;;;;;;5031423;28;20048;-60
2022/05/12 13:07:08;;;;;;;9.82;0.90;;;16.40;82.00;;;;;;5032044;28;20050;-60
2022/05/12 13:09:39;;;;;;;4.15;0.98;;;16.50;82.60;;;;;;5033824;28;20397;-60
2022/05/12 13:12:15;;;;;;;8.38;1.15;;;16.50;83.20;;;;;;5031664;28;20129;-60
2022/05/12 13:14:45;;;;;;;7.43;1.10;;;16.60;81.60;;;;;;5021027;28;20496;-60
2022/05/12 13:17:26;;;;;;;5.85;1.15;;;16.60;82.00;;;;;;5031005;28;20049;-61
2022/05/12 13:20:01;;;;;;;5.95;0.90;;;16.50;81.80;;;;;;5012452;28;20616;-60
2022/05/12 13:22:35;;;;;;;2.83;1.38;;;16.60;83.00;;;;;;5032195;28;20049;-60
2022/05/12 13:25:04;;;;;;;4.00;1.00;;;16.70;81.70;;;;;;5032137;28;20046;-61
2022/05/12 13:27:35;;;;;;;6.05;0.80;;;16.80;78.60;;;;;;5033820;28;20045;-60
2022/05/12 13:30:11;;;;;;;3.70;0.82;;;16.70;80.50;;;;;;5029160;28;20409;-60
2022/05/12 13:32:49;;;;;;;4.93;0.65;;;16.90;81.60;;;;;;5027876;28;20049;-60
2022/05/12 13:35:19;;;;;;;3.55;0.63;;;17.00;81.20;;;;;;5028133;28;20045;-60
2022/05/12 13:37:54;;;;;;;3.10;0.68;;;17.00;80.50;;;;;;5028548;28;20508;-61
2022/05/12 13:40:48;;;;;;;4.45;1.50;;;16.90;80.80;;;;;;5030064;28;20056;-60
2022/05/12 13:43:35;;;;;;;7.93;0.98;;;16.90;80.60;;;;;;5030359;28;20045;-59